createdAt,value
2022-11-30T00:00:19.231Z,91.50
2022-11-30T00:03:09.941Z,83.10
2022-11-30T00:05:41.564Z,86.90
2022-11-30T00:08:12.148Z,82.10
2022-11-30T00:10:43.286Z,83.50
2022-11-30T00:13:14.019Z,82.10
2022-11-30T00:15:44.858Z,82.70
2022-11-30T00:18:17.054Z,81.60
2022-11-30T00:20:51.056Z,79.80
2022-11-30T00:23:21.658Z,72.80
2022-11-30T00:25:52.462Z,83.20
2022-11-30T00:28:23.023Z,85.40
2022-11-30T00:30:59.708Z,81.70
2022-11-30T00:33:30.427Z,78.60
2022-11-30T00:36:02.300Z,83.50
2022-11-30T00:38:33.696Z,77.90
2022-11-30T00:41:04.540Z,84.10
2022-11-30T00:43:35.410Z,83.10
2022-11-30T00:46:06.620Z,82.10
2022-11-30T00:48:37.899Z,80.60
2022-11-30T00:51:09.518Z,83.60
2022-11-30T00:53:40.914Z,88.30
2022-11-30T00:56:12.020Z,88.10
2022-11-30T00:58:42.734Z,84.60
2022-11-30T01:01:13.347Z,80.50
2022-11-30T01:03:44.212Z,76.90
2022-11-30T01:06:15.398Z,77.60
2022-11-30T01:08:46.126Z,76.80
2022-11-30T01:11:18.751Z,80.40
2022-11-30T01:13:49.432Z,87.20
2022-11-30T01:16:20.988Z,80.20
2022-11-30T01:18:51.926Z,81.00
2022-11-30T01:21:23.730Z,83.50
2022-11-30T01:23:55.134Z,82.50
2022-11-30T01:26:25.991Z,74.10
2022-11-30T01:28:56.942Z,81.00
2022-11-30T01:31:28.105Z,77.50
2022-11-30T01:33:59.287Z,76.80
2022-11-30T01:36:30.176Z,89.90
2022-11-30T01:39:00.862Z,79.50
2022-11-30T01:41:32.628Z,88.60
2022-11-30T01:44:19.812Z,80.00
2022-11-30T01:46:54.722Z,77.90
2022-11-30T01:49:29.946Z,86.60
2022-11-30T01:52:02.270Z,82.90
2022-11-30T01:54:34.699Z,76.20
2022-11-30T01:57:09.019Z,86.80
2022-11-30T01:59:40.104Z,82.90
2022-11-30T02:02:11.128Z,81.70
2022-11-30T02:04:41.882Z,85.90
2022-11-30T02:07:12.523Z,78.70
2022-11-30T02:09:43.961Z,85.50
2022-11-30T02:12:20.205Z,83.10
2022-11-30T02:14:52.339Z,81.50
2022-11-30T02:17:25.454Z,85.20
2022-11-30T02:22:31.969Z,78.30
2022-11-30T02:25:08.634Z,79.40
2022-11-30T02:27:59.952Z,71.50
2022-11-30T02:30:32.741Z,73.50
2022-11-30T02:33:06.556Z,81.00
2022-11-30T02:35:40.135Z,69.50
2022-11-30T02:40:40.664Z,79.80
2022-11-30T02:43:11.214Z,77.30
2022-11-30T02:45:45.732Z,83.30
2022-11-30T02:48:19.754Z,82.90
2022-11-30T02:50:54.159Z,82.20
2022-11-30T02:53:24.689Z,74.50
2022-11-30T02:55:55.931Z,68.90
2022-11-30T02:58:26.566Z,71.60
2022-11-30T03:00:57.754Z,76.00
2022-11-30T03:03:28.411Z,75.70
2022-11-30T03:05:59.275Z,74.70
2022-11-30T03:08:30.314Z,70.50
2022-11-30T03:11:04.431Z,73.50
2022-11-30T03:13:35.213Z,71.90
2022-11-30T03:16:09.655Z,70.50
2022-11-30T03:18:42.670Z,71.30
2022-11-30T03:21:13.707Z,74.20
2022-11-30T03:23:44.387Z,65.20
2022-11-30T03:26:15.389Z,68.50
2022-11-30T03:28:46.017Z,68.90
2022-11-30T03:31:16.942Z,68.50
2022-11-30T03:33:47.588Z,60.20
2022-11-30T03:36:18.619Z,65.90
2022-11-30T03:38:49.280Z,72.70
2022-11-30T03:41:20.347Z,64.50
2022-11-30T03:43:51.017Z,68.70
2022-11-30T03:46:21.784Z,54.60
2022-11-30T03:48:52.440Z,54.80
2022-11-30T03:51:23.156Z,49.80
2022-11-30T03:53:53.752Z,51.00
2022-11-30T03:56:24.860Z,48.30
2022-11-30T03:58:56.003Z,48.10
2022-11-30T04:01:27.077Z,50.60
2022-11-30T04:03:58.001Z,49.90
2022-11-30T04:06:29.186Z,52.70
2022-11-30T04:08:59.621Z,50.20
2022-11-30T04:11:30.670Z,48.80
2022-11-30T04:14:01.238Z,46.80
2022-11-30T04:16:32.365Z,49.50
2022-11-30T04:19:03.249Z,42.00
2022-11-30T04:21:34.597Z,50.00
2022-11-30T04:24:05.911Z,43.90
2022-11-30T04:26:37.394Z,46.80
2022-11-30T04:29:08.214Z,47.10
2022-11-30T04:31:39.446Z,46.10
2022-11-30T04:34:10.040Z,42.40
2022-11-30T04:36:41.067Z,46.20
2022-11-30T04:39:11.558Z,45.20
2022-11-30T04:41:42.400Z,47.40
2022-11-30T04:44:13.129Z,42.20
2022-11-30T04:46:44.338Z,46.70
2022-11-30T04:49:14.963Z,42.10
2022-11-30T04:51:45.656Z,48.90
2022-11-30T04:54:16.376Z,48.40
2022-11-30T04:56:47.525Z,43.00
2022-11-30T04:59:18.236Z,44.90
2022-11-30T05:01:48.899Z,44.80
2022-11-30T05:04:19.439Z,45.00
2022-11-30T05:06:52.696Z,41.70
2022-11-30T05:09:23.330Z,40.10
2022-11-30T05:11:54.050Z,41.40
2022-11-30T05:14:25.063Z,39.70
2022-11-30T05:16:56.235Z,38.80
2022-11-30T05:19:26.670Z,37.30
2022-11-30T05:21:57.741Z,40.20
2022-11-30T05:24:28.648Z,35.80
2022-11-30T05:26:59.668Z,42.00
2022-11-30T05:29:30.208Z,34.10
2022-11-30T05:32:00.845Z,35.70
2022-11-30T05:34:41.188Z,35.80
2022-11-30T05:37:20.673Z,39.20
2022-11-30T05:39:51.268Z,36.00
2022-11-30T05:42:22.036Z,36.50
2022-11-30T05:44:52.636Z,36.70
2022-11-30T05:47:23.578Z,39.10
2022-11-30T05:49:54.203Z,39.30
2022-11-30T05:52:25.040Z,38.30
2022-11-30T05:54:55.878Z,35.40
2022-11-30T05:57:26.829Z,37.00
2022-11-30T05:59:57.442Z,31.20
2022-11-30T06:02:28.673Z,34.50
2022-11-30T06:04:59.626Z,37.20
2022-11-30T06:07:30.459Z,33.70
2022-11-30T06:10:01.197Z,39.10
2022-11-30T06:12:31.935Z,32.10
2022-11-30T06:15:02.657Z,33.20
2022-11-30T06:17:33.517Z,35.60
2022-11-30T06:20:04.540Z,38.50
2022-11-30T06:22:35.781Z,36.50
2022-11-30T06:25:07.137Z,35.20
2022-11-30T06:27:37.915Z,39.80
2022-11-30T06:30:10.232Z,43.40
2022-11-30T06:32:45.380Z,41.30
2022-11-30T06:35:16.105Z,37.70
2022-11-30T06:37:46.935Z,37.50
2022-11-30T06:40:17.713Z,39.30
2022-11-30T06:42:48.572Z,47.30
2022-11-30T06:45:19.203Z,51.40
2022-11-30T06:47:49.873Z,53.20
2022-11-30T06:50:20.453Z,47.20
2022-11-30T06:52:51.283Z,40.80
2022-11-30T06:55:21.817Z,40.80
2022-11-30T06:57:52.447Z,38.30
2022-11-30T07:00:23.887Z,37.60
2022-11-30T07:02:54.987Z,38.10
2022-11-30T07:05:25.774Z,37.30
2022-11-30T07:07:56.604Z,35.60
2022-11-30T07:10:27.863Z,39.70
2022-11-30T07:12:58.616Z,39.30
2022-11-30T07:15:29.153Z,39.30
2022-11-30T07:18:02.623Z,47.20
2022-11-30T07:20:33.181Z,40.00
2022-11-30T07:23:18.340Z,38.30
2022-11-30T07:26:06.757Z,39.30
2022-11-30T07:28:38.929Z,42.80
2022-11-30T07:31:16.897Z,37.20
2022-11-30T07:33:48.634Z,34.60
2022-11-30T07:36:20.442Z,39.10
2022-11-30T07:38:51.207Z,40.00
2022-11-30T07:41:22.281Z,41.30
2022-11-30T07:43:53.305Z,37.20
2022-11-30T07:46:23.858Z,38.20
2022-11-30T07:48:54.674Z,36.20
2022-11-30T07:51:25.409Z,33.40
2022-11-30T07:53:58.413Z,44.00
2022-11-30T07:56:29.799Z,43.00
2022-11-30T07:59:01.324Z,45.90
2022-11-30T08:01:33.116Z,42.10
2022-11-30T08:04:04.367Z,45.20
2022-11-30T08:06:35.031Z,41.10
2022-11-30T08:09:05.861Z,40.40
2022-11-30T08:11:37.516Z,33.60
2022-11-30T08:14:08.260Z,32.30
2022-11-30T08:16:39.366Z,39.80
2022-11-30T08:19:10.533Z,34.60
2022-11-30T08:21:43.221Z,34.50
2022-11-30T08:24:14.554Z,34.80
2022-11-30T08:26:45.402Z,36.60
2022-11-30T08:29:16.599Z,40.10
2022-11-30T08:31:47.347Z,33.60
2022-11-30T08:34:18.581Z,36.80
2022-11-30T08:36:51.995Z,39.20
2022-11-30T08:39:23.043Z,37.20
2022-11-30T08:41:54.316Z,35.80
2022-11-30T08:44:25.157Z,39.90
2022-11-30T08:46:56.107Z,34.40
2022-11-30T08:49:26.951Z,40.40
2022-11-30T08:54:49.327Z,34.70
2022-11-30T08:57:22.095Z,35.80
2022-11-30T08:59:52.894Z,36.40
2022-11-30T09:02:23.565Z,35.50
2022-11-30T09:04:54.528Z,40.80
2022-11-30T09:07:24.990Z,35.30
2022-11-30T09:09:56.080Z,38.80
2022-11-30T09:12:26.656Z,38.00
2022-11-30T09:14:58.598Z,36.10
2022-11-30T09:17:29.659Z,34.00
2022-11-30T09:20:00.798Z,32.80
2022-11-30T09:22:31.636Z,37.90
2022-11-30T09:25:02.676Z,38.80
2022-11-30T09:27:37.194Z,39.80
2022-11-30T09:30:12.228Z,37.60
2022-11-30T09:32:42.759Z,36.50
2022-11-30T09:35:13.703Z,40.60
2022-11-30T09:37:44.281Z,34.70
2022-11-30T09:40:24.280Z,35.80
2022-11-30T09:42:57.880Z,38.70
2022-11-30T09:45:30.243Z,36.20
2022-11-30T09:48:14.949Z,40.30
2022-11-30T09:50:47.530Z,36.20
2022-11-30T09:53:24.692Z,45.30
2022-11-30T09:56:03.519Z,41.00
2022-11-30T09:58:40.188Z,40.80
2022-11-30T10:01:16.469Z,40.20
2022-11-30T10:03:47.162Z,41.10
2022-11-30T10:06:20.842Z,43.50
2022-11-30T10:08:56.942Z,46.30
2022-11-30T10:11:34.738Z,42.30
2022-11-30T10:14:17.641Z,51.30
2022-11-30T10:16:51.143Z,56.10
2022-11-30T10:19:30.136Z,51.10
2022-11-30T10:22:08.070Z,50.90
2022-11-30T10:24:50.395Z,55.40
2022-11-30T10:27:31.239Z,51.30
2022-11-30T10:30:02.892Z,55.30
2022-11-30T10:32:37.007Z,51.30
2022-11-30T10:35:16.651Z,49.40
2022-11-30T10:37:48.441Z,49.20
2022-11-30T10:40:22.502Z,53.40
2022-11-30T10:42:55.311Z,52.50
2022-11-30T10:45:29.059Z,46.20
2022-11-30T10:48:02.095Z,52.20
2022-11-30T10:50:33.087Z,46.10
2022-11-30T10:53:04.129Z,50.30
2022-11-30T10:55:36.748Z,45.70
2022-11-30T10:58:11.097Z,41.60
2022-11-30T11:00:41.858Z,43.90
2022-11-30T11:13:39.282Z,44.60
2022-11-30T11:16:11.076Z,46.80
2022-11-30T11:18:53.378Z,44.70
2022-11-30T11:21:24.936Z,46.10
2022-11-30T11:23:56.594Z,43.90
2022-11-30T11:26:28.169Z,47.80
2022-11-30T11:29:00.002Z,43.80
2022-11-30T11:31:36.552Z,42.70
2022-11-30T11:34:24.097Z,45.60
2022-11-30T11:37:05.129Z,40.30
2022-11-30T11:39:36.111Z,46.10
2022-11-30T11:42:08.230Z,38.40
2022-11-30T11:44:39.219Z,33.30
2022-11-30T11:47:24.188Z,39.40
2022-11-30T11:50:05.061Z,38.00
2022-11-30T11:52:36.214Z,37.40
2022-11-30T11:55:10.012Z,36.80
2022-11-30T11:57:43.497Z,38.10
2022-11-30T12:00:17.939Z,34.80
2022-11-30T12:02:52.916Z,38.90
2022-11-30T12:05:25.975Z,37.50
2022-11-30T12:08:03.921Z,38.70
2022-11-30T12:10:53.681Z,41.40
2022-11-30T12:13:27.886Z,44.20
2022-11-30T12:18:32.238Z,38.30
2022-11-30T12:21:06.200Z,35.60
2022-11-30T12:23:45.271Z,37.10
2022-11-30T12:26:20.579Z,36.40
2022-11-30T12:29:04.901Z,33.50
2022-11-30T12:31:41.823Z,32.80
2022-11-30T12:34:19.152Z,31.30
2022-11-30T12:36:55.528Z,37.10
2022-11-30T12:39:31.586Z,35.70
2022-11-30T12:42:05.561Z,34.50
2022-11-30T12:44:49.624Z,36.00
2022-11-30T12:47:28.361Z,32.40
2022-11-30T12:50:04.398Z,30.70
2022-11-30T12:52:41.089Z,32.10
2022-11-30T12:55:18.729Z,34.00
2022-11-30T12:57:56.629Z,32.80
2022-11-30T13:00:30.919Z,30.80
2022-11-30T13:03:24.369Z,25.40
2022-11-30T13:05:58.789Z,33.80
2022-11-30T13:08:31.884Z,32.30
2022-11-30T13:11:06.609Z,33.90
2022-11-30T13:13:38.382Z,35.50
2022-11-30T13:16:09.961Z,29.90
2022-11-30T13:18:40.852Z,33.00
2022-11-30T13:21:19.426Z,33.40
2022-11-30T13:23:54.572Z,38.20
2022-11-30T13:26:28.594Z,33.40
2022-11-30T13:29:12.229Z,29.60
2022-11-30T13:31:45.015Z,30.20
2022-11-30T13:34:29.008Z,32.40
2022-11-30T13:37:04.290Z,30.30
2022-11-30T14:38:42.464Z,40.70
2022-11-30T14:41:23.395Z,38.00
2022-11-30T14:44:00.988Z,43.90
2022-11-30T14:46:34.015Z,40.30
2022-11-30T14:49:15.333Z,43.10
2022-11-30T14:51:47.436Z,44.10
2022-11-30T14:54:22.931Z,43.50
2022-11-30T14:56:55.012Z,43.40
2022-11-30T14:59:34.345Z,52.10
2022-11-30T15:02:06.176Z,46.30
2022-11-30T15:04:37.768Z,45.10
2022-11-30T15:07:14.031Z,39.40
2022-11-30T15:09:45.832Z,41.70
2022-11-30T15:12:20.399Z,45.60
2022-11-30T15:15:10.246Z,39.80
2022-11-30T15:17:51.951Z,41.20
2022-11-30T15:20:26.093Z,41.20
2022-11-30T15:22:57.802Z,40.80
2022-11-30T15:25:31.570Z,37.60
2022-11-30T15:28:04.741Z,41.80
2022-11-30T15:30:37.323Z,44.70
2022-11-30T15:33:08.557Z,40.90
2022-11-30T15:36:12.101Z,42.70
2022-11-30T15:38:30.445Z,43.40
2022-11-30T15:41:05.541Z,43.30
2022-11-30T15:43:38.224Z,37.50
2022-11-30T15:46:27.039Z,35.30
2022-11-30T15:49:09.488Z,36.60
2022-11-30T15:51:41.563Z,40.10
2022-11-30T15:54:12.387Z,43.60
2022-11-30T15:56:43.457Z,40.90
2022-11-30T15:59:24.721Z,39.40
2022-11-30T16:02:05.036Z,33.70
2022-11-30T16:04:49.621Z,41.50
2022-11-30T16:07:20.983Z,40.00
2022-11-30T16:09:51.801Z,36.60
2022-11-30T16:12:27.402Z,34.70
2022-11-30T16:14:58.082Z,35.70
2022-11-30T16:21:01.187Z,38.20
2022-11-30T16:23:34.635Z,33.80
2022-11-30T16:26:07.907Z,36.50
2022-11-30T16:28:44.303Z,32.00
2022-11-30T16:31:21.223Z,27.20
2022-11-30T16:33:51.701Z,27.60
2022-11-30T16:36:23.053Z,28.00
2022-11-30T16:38:54.104Z,28.90
2022-11-30T16:41:26.003Z,31.20
2022-11-30T16:43:57.902Z,27.70
2022-11-30T16:46:29.817Z,30.10
2022-11-30T16:58:21.815Z,33.20
2022-11-30T17:00:52.431Z,32.40
2022-11-30T17:03:24.541Z,31.20
2022-11-30T17:05:54.984Z,33.50
2022-11-30T17:08:25.923Z,34.90
2022-11-30T17:10:56.748Z,43.30
2022-11-30T17:13:28.000Z,45.20
2022-11-30T17:15:58.425Z,44.40
2022-11-30T17:18:29.465Z,45.00
2022-11-30T17:21:00.247Z,53.40
2022-11-30T17:23:31.037Z,47.80
2022-11-30T17:26:01.663Z,52.70
2022-11-30T17:28:32.392Z,56.80
2022-11-30T17:31:02.975Z,52.70
2022-11-30T17:33:34.484Z,56.10
2022-11-30T17:36:06.447Z,54.00
2022-11-30T17:38:37.483Z,48.60
2022-11-30T17:41:08.630Z,49.30
2022-11-30T17:43:39.942Z,55.90
2022-11-30T17:46:11.257Z,47.70
2022-11-30T17:48:41.895Z,48.20
2022-11-30T17:51:12.996Z,45.00
2022-11-30T17:53:44.494Z,48.80
2022-11-30T17:56:15.645Z,41.40
2022-11-30T17:58:49.354Z,42.40
2022-11-30T18:01:21.256Z,47.00
2022-11-30T18:03:52.934Z,48.40
2022-11-30T18:06:24.459Z,48.20
2022-11-30T18:08:55.595Z,42.50
2022-11-30T18:11:26.884Z,46.30
2022-11-30T18:13:58.231Z,51.80
2022-11-30T18:16:29.734Z,48.50
2022-11-30T18:19:00.779Z,47.20
2022-11-30T18:21:31.621Z,46.30
2022-11-30T18:24:02.351Z,52.90
2022-11-30T18:26:34.322Z,45.60
2022-11-30T18:29:05.452Z,42.40
2022-11-30T18:31:37.645Z,43.10
2022-11-30T18:34:08.967Z,44.10
2022-11-30T18:36:39.700Z,43.60
2022-11-30T18:39:10.917Z,47.50
2022-11-30T18:41:41.473Z,48.40
2022-11-30T18:44:12.515Z,42.30
2022-11-30T18:46:42.986Z,47.00
2022-11-30T18:49:13.829Z,44.00
2022-11-30T18:51:44.613Z,44.50
2022-11-30T18:54:15.451Z,44.80
2022-11-30T18:56:46.510Z,45.30
2022-11-30T18:59:17.059Z,49.50
2022-11-30T19:01:47.580Z,42.40
2022-11-30T19:04:18.500Z,44.40
2022-11-30T19:06:49.320Z,44.20
2022-11-30T19:09:20.667Z,48.00
2022-11-30T19:11:51.816Z,53.80
2022-11-30T19:14:23.135Z,48.60
2022-11-30T19:16:53.776Z,45.20
2022-11-30T19:19:25.169Z,47.30
2022-11-30T19:21:58.432Z,40.50
2022-11-30T19:24:29.814Z,48.00
2022-11-30T19:27:00.634Z,50.00
2022-11-30T19:29:31.647Z,47.00
2022-11-30T19:32:02.486Z,56.00
2022-11-30T19:34:34.048Z,46.90
2022-11-30T19:37:04.529Z,45.20
2022-11-30T19:39:35.743Z,44.80
2022-11-30T19:42:07.411Z,42.00
2022-11-30T19:44:39.243Z,47.20
2022-11-30T19:47:09.850Z,43.60
2022-11-30T19:49:41.715Z,46.80
2022-11-30T19:52:12.752Z,51.10
2022-11-30T19:54:44.105Z,43.50
2022-11-30T19:57:15.161Z,43.80
2022-11-30T19:59:47.212Z,49.00
2022-11-30T20:02:19.418Z,47.60
2022-11-30T20:04:59.428Z,42.70
2022-11-30T20:07:32.327Z,47.90
2022-11-30T20:10:03.274Z,45.80
2022-11-30T20:12:33.873Z,42.90
2022-11-30T20:15:05.135Z,47.10
2022-11-30T20:17:35.853Z,47.80
2022-11-30T20:20:08.051Z,37.60
2022-11-30T20:22:38.653Z,44.20
2022-11-30T20:25:10.171Z,43.40
2022-11-30T20:27:41.044Z,43.30
2022-11-30T20:30:12.743Z,35.40
2022-11-30T20:32:43.630Z,44.60
2022-11-30T20:35:14.858Z,39.50
2022-11-30T20:37:45.408Z,40.60
2022-11-30T20:40:17.139Z,37.00
2022-11-30T20:42:47.995Z,37.10
2022-11-30T20:45:19.141Z,37.40
2022-11-30T20:47:54.646Z,41.10
2022-11-30T20:50:28.253Z,37.80
2022-11-30T20:52:58.650Z,38.70
2022-11-30T20:55:29.668Z,40.70
2022-11-30T20:58:07.798Z,40.40
2022-11-30T21:00:39.922Z,39.60
2022-11-30T21:03:10.732Z,44.10
2022-11-30T21:05:41.675Z,40.10
2022-11-30T21:08:12.331Z,38.10
2022-11-30T21:10:42.923Z,43.20
2022-11-30T21:13:13.510Z,38.00
2022-11-30T21:15:55.600Z,43.00
2022-11-30T21:18:51.719Z,36.70
2022-11-30T21:21:25.087Z,35.30
2022-11-30T21:26:26.001Z,43.10
2022-11-30T21:29:01.116Z,39.40
2022-11-30T21:31:32.397Z,35.00
2022-11-30T21:34:03.901Z,38.40
2022-11-30T21:36:34.785Z,37.40
2022-11-30T21:39:07.593Z,39.50
2022-11-30T21:41:39.941Z,39.50
2022-11-30T21:44:12.275Z,42.80
2022-11-30T21:46:43.830Z,40.70
2022-11-30T21:49:14.954Z,46.00
2022-11-30T21:51:45.786Z,44.50
2022-11-30T21:54:16.521Z,39.80
2022-11-30T21:56:52.478Z,45.30
2022-11-30T21:59:23.004Z,40.10
2022-11-30T22:01:53.976Z,46.80
2022-11-30T22:04:24.525Z,45.00
2022-11-30T22:06:55.820Z,42.70
2022-11-30T22:09:26.629Z,42.80
2022-11-30T22:11:58.007Z,46.00
2022-11-30T22:14:29.040Z,42.60
2022-11-30T22:17:00.019Z,45.30
2022-11-30T22:19:30.612Z,46.50
2022-11-30T22:22:01.668Z,48.50
2022-11-30T22:24:32.279Z,43.60
2022-11-30T22:27:03.117Z,44.40
2022-11-30T22:29:33.852Z,46.10
2022-11-30T22:32:04.628Z,47.90
2022-11-30T22:34:35.109Z,48.70
2022-11-30T22:37:05.945Z,43.10
2022-11-30T22:39:36.784Z,47.00
2022-11-30T22:42:07.489Z,45.80
2022-11-30T22:44:37.949Z,41.50
2022-11-30T22:47:08.886Z,46.40
2022-11-30T22:49:39.740Z,41.20
2022-11-30T22:52:10.937Z,43.30
2022-11-30T22:54:41.562Z,44.60
2022-11-30T22:57:12.942Z,44.20
2022-11-30T22:59:43.394Z,43.70
2022-11-30T23:02:15.191Z,41.20
2022-11-30T23:23:10.382Z,49.80
2022-11-30T23:25:41.588Z,45.00
2022-11-30T23:28:12.467Z,48.20
2022-11-30T23:30:43.359Z,50.00
2022-11-30T23:33:14.051Z,52.10
2022-11-30T23:35:44.935Z,50.90
2022-11-30T23:38:15.532Z,54.40
2022-11-30T23:40:46.087Z,47.50
2022-11-30T23:43:16.718Z,53.50
2022-11-30T23:45:47.501Z,50.10
2022-11-30T23:48:18.339Z,58.30
2022-11-30T23:50:49.031Z,57.80
2022-11-30T23:53:19.964Z,47.50
2022-11-30T23:55:50.708Z,52.30
2022-11-30T23:58:23.370Z,56.60
